sensor_id;sensor_type;location;lat;lon;timestamp;temperature;humidity
11091;DHT22;5599;52.210;21.046;2023-06-14T00:01:13;13.30;99.90
11091;DHT22;5599;52.210;21.046;2023-06-14T00:03:42;13.30;99.90
11091;DHT22;5599;52.210;21.046;2023-06-14T00:06:12;13.30;99.90
11091;DHT22;5599;52.210;21.046;2023-06-14T00:08:41;13.30;99.90
11091;DHT22;5599;52.210;21.046;2023-06-14T00:11:11;13.30;99.90
11091;DHT22;5599;52.210;21.046;2023-06-14T00:13:41;13.20;99.90
11091;DHT22;5599;52.210;21.046;2023-06-14T00:16:11;13.30;99.90
11091;DHT22;5599;52.210;21.046;2023-06-14T00:18:41;13.30;99.90
11091;DHT22;5599;52.210;21.046;2023-06-14T00:21:10;13.30;99.90
11091;DHT22;5599;52.210;21.046;2023-06-14T00:23:40;13.30;99.90
11091;DHT22;5599;52.210;21.046;2023-06-14T00:26:09;13.30;99.90
11091;DHT22;5599;52.210;21.046;2023-06-14T00:28:42;13.30;99.90
11091;DHT22;5599;52.210;21.046;2023-06-14T00:31:11;13.30;99.90
11091;DHT22;5599;52.210;21.046;2023-06-14T00:33:41;13.30;99.90
11091;DHT22;5599;52.210;21.046;2023-06-14T00:36:11;13.30;99.90
11091;DHT22;5599;52.210;21.046;2023-06-14T00:38:42;13.20;99.90
11091;DHT22;5599;52.210;21.046;2023-06-14T00:41:12;13.20;99.90
11091;DHT22;5599;52.210;21.046;2023-06-14T00:43:44;13.30;99.90
11091;DHT22;5599;52.210;21.046;2023-06-14T00:46:15;13.20;99.90
11091;DHT22;5599;52.210;21.046;2023-06-14T00:48:45;13.20;99.90
11091;DHT22;5599;52.210;21.046;2023-06-14T00:51:16;13.30;99.90
11091;DHT22;5599;52.210;21.046;2023-06-14T00:53:45;13.30;99.90
11091;DHT22;5599;52.210;21.046;2023-06-14T00:56:16;13.30;99.90
11091;DHT22;5599;52.210;21.046;2023-06-14T00:58:52;13.30;99.90
11091;DHT22;5599;52.210;21.046;2023-06-14T01:01:21;13.30;99.90
11091;DHT22;5599;52.210;21.046;2023-06-14T01:03:51;13.30;99.90
11091;DHT22;5599;52.210;21.046;2023-06-14T01:06:30;13.30;99.90
11091;DHT22;5599;52.210;21.046;2023-06-14T01:09:06;13.40;99.90
11091;DHT22;5599;52.210;21.046;2023-06-14T01:11:44;13.40;99.90
11091;DHT22;5599;52.210;21.046;2023-06-14T01:14:18;13.40;99.90
11091;DHT22;5599;52.210;21.046;2023-06-14T01:16:49;13.50;99.90
11091;DHT22;5599;52.210;21.046;2023-06-14T01:19:22;13.50;99.90
11091;DHT22;5599;52.210;21.046;2023-06-14T01:21:53;13.50;99.90
11091;DHT22;5599;52.210;21.046;2023-06-14T01:24:24;13.60;99.90
11091;DHT22;5599;52.210;21.046;2023-06-14T01:27:00;13.60;99.90
11091;DHT22;5599;52.210;21.046;2023-06-14T01:29:30;13.50;99.90
11091;DHT22;5599;52.210;21.046;2023-06-14T01:32:01;13.60;99.90
11091;DHT22;5599;52.210;21.046;2023-06-14T01:34:33;13.50;99.90
11091;DHT22;5599;52.210;21.046;2023-06-14T01:37:02;13.60;99.90
11091;DHT22;5599;52.210;21.046;2023-06-14T01:39:34;13.60;99.90
11091;DHT22;5599;52.210;21.046;2023-06-14T01:42:05;13.60;99.90
11091;DHT22;5599;52.210;21.046;2023-06-14T01:44:35;13.50;99.90
11091;DHT22;5599;52.210;21.046;2023-06-14T01:47:05;13.50;99.90
11091;DHT22;5599;52.210;21.046;2023-06-14T01:49:35;13.50;99.90
11091;DHT22;5599;52.210;21.046;2023-06-14T01:52:05;13.50;99.90
11091;DHT22;5599;52.210;21.046;2023-06-14T01:54:39;13.50;99.90
11091;DHT22;5599;52.210;21.046;2023-06-14T01:57:11;13.60;99.90
11091;DHT22;5599;52.210;21.046;2023-06-14T01:59:40;13.60;99.90
11091;DHT22;5599;52.210;21.046;2023-06-14T02:02:10;13.60;99.90
11091;DHT22;5599;52.210;21.046;2023-06-14T02:04:40;13.60;99.90
11091;DHT22;5599;52.210;21.046;2023-06-14T02:07:10;13.70;99.90
11091;DHT22;5599;52.210;21.046;2023-06-14T02:09:43;13.70;99.90
11091;DHT22;5599;52.210;21.046;2023-06-14T02:12:12;13.70;99.90
11091;DHT22;5599;52.210;21.046;2023-06-14T02:14:41;13.70;99.90
11091;DHT22;5599;52.210;21.046;2023-06-14T02:17:12;13.70;99.90
11091;DHT22;5599;52.210;21.046;2023-06-14T02:19:41;13.60;99.90
11091;DHT22;5599;52.210;21.046;2023-06-14T02:22:11;13.60;99.90
11091;DHT22;5599;52.210;21.046;2023-06-14T02:24:44;13.50;99.90
11091;DHT22;5599;52.210;21.046;2023-06-14T02:27:13;13.50;99.90
11091;DHT22;5599;52.210;21.046;2023-06-14T02:29:44;13.50;99.90
11091;DHT22;5599;52.210;21.046;2023-06-14T02:32:13;13.50;99.90
11091;DHT22;5599;52.210;21.046;2023-06-14T02:34:42;13.60;99.90
11091;DHT22;5599;52.210;21.046;2023-06-14T02:37:14;13.60;99.90
11091;DHT22;5599;52.210;21.046;2023-06-14T02:39:45;13.60;99.90
11091;DHT22;5599;52.210;21.046;2023-06-14T02:42:15;13.60;99.90
11091;DHT22;5599;52.210;21.046;2023-06-14T02:44:44;13.60;99.90
11091;DHT22;5599;52.210;21.046;2023-06-14T02:47:19;13.70;99.90
11091;DHT22;5599;52.210;21.046;2023-06-14T02:49:48;13.80;99.90
11091;DHT22;5599;52.210;21.046;2023-06-14T02:52:18;13.80;99.90
11091;DHT22;5599;52.210;21.046;2023-06-14T02:54:49;13.90;99.90
11091;DHT22;5599;52.210;21.046;2023-06-14T02:57:18;13.90;99.90
11091;DHT22;5599;52.210;21.046;2023-06-14T02:59:48;13.90;99.90
11091;DHT22;5599;52.210;21.046;2023-06-14T03:02:17;14.00;99.90
11091;DHT22;5599;52.210;21.046;2023-06-14T03:04:47;14.00;99.90
11091;DHT22;5599;52.210;21.046;2023-06-14T03:07:18;14.00;99.90
11091;DHT22;5599;52.210;21.046;2023-06-14T03:09:52;14.00;99.90
11091;DHT22;5599;52.210;21.046;2023-06-14T03:12:21;14.00;99.90
11091;DHT22;5599;52.210;21.046;2023-06-14T03:14:52;13.90;99.90
11091;DHT22;5599;52.210;21.046;2023-06-14T03:17:26;13.80;99.90
11091;DHT22;5599;52.210;21.046;2023-06-14T03:20:02;13.90;99.90
11091;DHT22;5599;52.210;21.046;2023-06-14T03:22:33;13.90;99.90
11091;DHT22;5599;52.210;21.046;2023-06-14T03:25:05;13.80;99.90
11091;DHT22;5599;52.210;21.046;2023-06-14T03:27:37;13.80;99.90
11091;DHT22;5599;52.210;21.046;2023-06-14T03:30:08;13.80;99.90
11091;DHT22;5599;52.210;21.046;2023-06-14T03:32:38;13.70;99.90
11091;DHT22;5599;52.210;21.046;2023-06-14T03:35:08;13.70;99.90
11091;DHT22;5599;52.210;21.046;2023-06-14T03:37:47;13.70;99.90
11091;DHT22;5599;52.210;21.046;2023-06-14T03:40:20;13.70;99.90
11091;DHT22;5599;52.210;21.046;2023-06-14T03:42:53;13.70;99.90
11091;DHT22;5599;52.210;21.046;2023-06-14T03:45:23;13.70;99.90
11091;DHT22;5599;52.210;21.046;2023-06-14T03:47:52;13.70;99.90
11091;DHT22;5599;52.210;21.046;2023-06-14T03:50:22;13.80;99.90
11091;DHT22;5599;52.210;21.046;2023-06-14T03:52:52;13.70;99.90
11091;DHT22;5599;52.210;21.046;2023-06-14T03:55:22;13.80;99.90
11091;DHT22;5599;52.210;21.046;2023-06-14T03:57:56;13.80;99.90
11091;DHT22;5599;52.210;21.046;2023-06-14T04:00:25;13.80;99.90
11091;DHT22;5599;52.210;21.046;2023-06-14T04:02:54;13.80;99.90
11091;DHT22;5599;52.210;21.046;2023-06-14T04:05:24;13.90;99.90
11091;DHT22;5599;52.210;21.046;2023-06-14T04:07:56;14.00;99.90
11091;DHT22;5599;52.210;21.046;2023-06-14T04:10:33;14.00;99.90
11091;DHT22;5599;52.210;21.046;2023-06-14T04:13:02;14.00;99.90
11091;DHT22;5599;52.210;21.046;2023-06-14T04:15:32;14.10;99.90
11091;DHT22;5599;52.210;21.046;2023-06-14T04:18:02;14.20;99.90
11091;DHT22;5599;52.210;21.046;2023-06-14T04:20:32;14.20;67.00
11091;DHT22;5599;52.210;21.046;2023-06-14T04:23:11;14.30;1.00
11091;DHT22;5599;52.210;21.046;2023-06-14T04:25:43;14.30;6.90
11091;DHT22;5599;52.210;21.046;2023-06-14T04:28:16;14.20;42.20
11091;DHT22;5599;52.210;21.046;2023-06-14T04:30:47;14.30;19.50
11091;DHT22;5599;52.210;21.046;2023-06-14T04:33:18;14.30;63.30
11091;DHT22;5599;52.210;21.046;2023-06-14T04:35:48;14.30;57.90
11091;DHT22;5599;52.210;21.046;2023-06-14T04:38:22;14.40;62.70
11091;DHT22;5599;52.210;21.046;2023-06-14T04:40:55;14.40;26.70
11091;DHT22;5599;52.210;21.046;2023-06-14T04:43:25;14.50;3.60
11091;DHT22;5599;52.210;21.046;2023-06-14T04:45:57;14.40;1.00
11091;DHT22;5599;52.210;21.046;2023-06-14T04:48:27;14.50;1.00
11091;DHT22;5599;52.210;21.046;2023-06-14T04:50:56;14.70;1.00
11091;DHT22;5599;52.210;21.046;2023-06-14T04:53:26;14.70;1.00
11091;DHT22;5599;52.210;21.046;2023-06-14T04:55:58;14.60;1.00
11091;DHT22;5599;52.210;21.046;2023-06-14T04:58:28;14.60;1.00
11091;DHT22;5599;52.210;21.046;2023-06-14T05:00:59;14.60;1.00
11091;DHT22;5599;52.210;21.046;2023-06-14T05:03:30;14.60;1.00
11091;DHT22;5599;52.210;21.046;2023-06-14T05:05:59;14.60;1.00
11091;DHT22;5599;52.210;21.046;2023-06-14T05:08:29;14.70;1.00
11091;DHT22;5599;52.210;21.046;2023-06-14T05:11:00;14.60;1.00
11091;DHT22;5599;52.210;21.046;2023-06-14T05:13:29;14.60;1.00
11091;DHT22;5599;52.210;21.046;2023-06-14T05:16:01;14.70;2.70
11091;DHT22;5599;52.210;21.046;2023-06-14T05:18:31;14.80;1.00
11091;DHT22;5599;52.210;21.046;2023-06-14T05:21:01;14.90;1.00
11091;DHT22;5599;52.210;21.046;2023-06-14T05:23:32;15.00;1.00
11091;DHT22;5599;52.210;21.046;2023-06-14T05:26:03;15.00;1.00
11091;DHT22;5599;52.210;21.046;2023-06-14T05:28:34;15.00;1.00
11091;DHT22;5599;52.210;21.046;2023-06-14T05:31:04;15.00;1.00
11091;DHT22;5599;52.210;21.046;2023-06-14T05:33:33;15.00;1.00
11091;DHT22;5599;52.210;21.046;2023-06-14T05:36:03;15.00;1.00
11091;DHT22;5599;52.210;21.046;2023-06-14T05:38:35;15.00;1.00
11091;DHT22;5599;52.210;21.046;2023-06-14T05:41:06;15.00;1.00
11091;DHT22;5599;52.210;21.046;2023-06-14T05:43:35;14.90;1.00
11091;DHT22;5599;52.210;21.046;2023-06-14T05:46:05;14.90;1.00
11091;DHT22;5599;52.210;21.046;2023-06-14T05:48:34;14.90;1.00
11091;DHT22;5599;52.210;21.046;2023-06-14T05:51:03;14.90;1.00
11091;DHT22;5599;52.210;21.046;2023-06-14T05:53:36;14.90;1.00
11091;DHT22;5599;52.210;21.046;2023-06-14T05:56:07;15.00;1.00
11091;DHT22;5599;52.210;21.046;2023-06-14T05:58:36;15.00;1.00
11091;DHT22;5599;52.210;21.046;2023-06-14T06:01:06;15.10;1.00
11091;DHT22;5599;52.210;21.046;2023-06-14T06:03:35;15.00;1.00
11091;DHT22;5599;52.210;21.046;2023-06-14T06:06:05;15.00;1.00
11091;DHT22;5599;52.210;21.046;2023-06-14T06:08:35;15.10;1.00
11091;DHT22;5599;52.210;21.046;2023-06-14T06:11:06;15.20;1.00
11091;DHT22;5599;52.210;21.046;2023-06-14T06:13:36;15.30;1.00
11091;DHT22;5599;52.210;21.046;2023-06-14T06:16:06;15.30;1.00
11091;DHT22;5599;52.210;21.046;2023-06-14T06:18:36;15.30;99.90
11091;DHT22;5599;52.210;21.046;2023-06-14T06:21:06;15.30;99.90
11091;DHT22;5599;52.210;21.046;2023-06-14T06:23:35;15.30;99.90
11091;DHT22;5599;52.210;21.046;2023-06-14T06:26:06;15.40;99.90
11091;DHT22;5599;52.210;21.046;2023-06-14T06:28:35;15.40;99.90
11091;DHT22;5599;52.210;21.046;2023-06-14T06:31:05;15.50;99.90
11091;DHT22;5599;52.210;21.046;2023-06-14T06:33:34;15.50;1.00
11091;DHT22;5599;52.210;21.046;2023-06-14T06:36:05;15.60;99.90
11091;DHT22;5599;52.210;21.046;2023-06-14T06:38:34;15.60;99.90
11091;DHT22;5599;52.210;21.046;2023-06-14T06:41:04;15.70;99.90
11091;DHT22;5599;52.210;21.046;2023-06-14T06:43:34;15.80;99.90
11091;DHT22;5599;52.210;21.046;2023-06-14T06:46:04;15.80;99.90
11091;DHT22;5599;52.210;21.046;2023-06-14T06:48:33;15.80;99.90
11091;DHT22;5599;52.210;21.046;2023-06-14T06:51:02;15.90;99.90
11091;DHT22;5599;52.210;21.046;2023-06-14T06:53:33;15.90;99.90
11091;DHT22;5599;52.210;21.046;2023-06-14T06:56:10;15.90;99.90
11091;DHT22;5599;52.210;21.046;2023-06-14T06:58:41;15.90;99.90
11091;DHT22;5599;52.210;21.046;2023-06-14T07:01:10;15.90;99.90
11091;DHT22;5599;52.210;21.046;2023-06-14T07:03:41;15.90;99.90
11091;DHT22;5599;52.210;21.046;2023-06-14T07:06:11;15.90;99.90
11091;DHT22;5599;52.210;21.046;2023-06-14T07:08:40;16.00;99.90
11091;DHT22;5599;52.210;21.046;2023-06-14T07:11:10;16.00;99.90
11091;DHT22;5599;52.210;21.046;2023-06-14T07:13:41;16.10;99.90
11091;DHT22;5599;52.210;21.046;2023-06-14T07:16:10;16.10;99.90
11091;DHT22;5599;52.210;21.046;2023-06-14T07:18:40;16.10;99.90
11091;DHT22;5599;52.210;21.046;2023-06-14T07:21:09;16.10;99.90
11091;DHT22;5599;52.210;21.046;2023-06-14T07:23:39;16.30;99.90
11091;DHT22;5599;52.210;21.046;2023-06-14T07:26:08;16.40;99.90
11091;DHT22;5599;52.210;21.046;2023-06-14T07:28:38;16.50;99.90
11091;DHT22;5599;52.210;21.046;2023-06-14T07:31:09;16.70;99.90
11091;DHT22;5599;52.210;21.046;2023-06-14T07:33:39;16.80;1.00
11091;DHT22;5599;52.210;21.046;2023-06-14T07:36:09;16.90;1.00
11091;DHT22;5599;52.210;21.046;2023-06-14T07:38:38;17.10;1.00
11091;DHT22;5599;52.210;21.046;2023-06-14T07:41:08;17.20;99.90
11091;DHT22;5599;52.210;21.046;2023-06-14T07:43:37;17.20;1.00
11091;DHT22;5599;52.210;21.046;2023-06-14T07:46:08;17.30;1.00
11091;DHT22;5599;52.210;21.046;2023-06-14T07:48:38;17.30;99.90
11091;DHT22;5599;52.210;21.046;2023-06-14T07:51:07;17.30;88.00
11091;DHT22;5599;52.210;21.046;2023-06-14T07:53:36;17.30;1.00
11091;DHT22;5599;52.210;21.046;2023-06-14T07:56:06;17.50;99.90
11091;DHT22;5599;52.210;21.046;2023-06-14T07:58:36;17.60;1.00
11091;DHT22;5599;52.210;21.046;2023-06-14T08:01:05;17.70;99.90
11091;DHT22;5599;52.210;21.046;2023-06-14T08:03:37;17.80;99.90
11091;DHT22;5599;52.210;21.046;2023-06-14T08:06:07;17.90;1.00
11091;DHT22;5599;52.210;21.046;2023-06-14T08:08:36;18.00;92.90
11091;DHT22;5599;52.210;21.046;2023-06-14T08:11:06;18.00;1.00
11091;DHT22;5599;52.210;21.046;2023-06-14T08:13:35;18.00;99.90
11091;DHT22;5599;52.210;21.046;2023-06-14T08:16:05;18.00;1.00
11091;DHT22;5599;52.210;21.046;2023-06-14T08:18:34;18.20;1.00
11091;DHT22;5599;52.210;21.046;2023-06-14T08:21:05;18.30;99.90
11091;DHT22;5599;52.210;21.046;2023-06-14T08:23:35;18.50;1.00
11091;DHT22;5599;52.210;21.046;2023-06-14T08:26:04;18.60;99.90
11091;DHT22;5599;52.210;21.046;2023-06-14T08:28:34;18.50;1.00
11091;DHT22;5599;52.210;21.046;2023-06-14T08:31:03;18.50;1.00
11091;DHT22;5599;52.210;21.046;2023-06-14T08:33:33;18.60;1.00
11091;DHT22;5599;52.210;21.046;2023-06-14T08:36:04;18.60;63.60
11091;DHT22;5599;52.210;21.046;2023-06-14T08:38:34;18.60;76.80
11091;DHT22;5599;52.210;21.046;2023-06-14T08:41:05;18.70;1.00
11091;DHT22;5599;52.210;21.046;2023-06-14T08:43:34;18.70;1.00
11091;DHT22;5599;52.210;21.046;2023-06-14T08:46:04;18.90;1.00
11091;DHT22;5599;52.210;21.046;2023-06-14T08:48:36;19.00;99.90
11091;DHT22;5599;52.210;21.046;2023-06-14T08:51:08;19.00;99.90
11091;DHT22;5599;52.210;21.046;2023-06-14T08:53:40;19.10;99.90
11091;DHT22;5599;52.210;21.046;2023-06-14T08:56:09;19.20;1.00
11091;DHT22;5599;52.210;21.046;2023-06-14T08:58:43;19.30;99.90
11091;DHT22;5599;52.210;21.046;2023-06-14T09:01:13;19.50;99.90
11091;DHT22;5599;52.210;21.046;2023-06-14T09:03:45;19.50;99.90
11091;DHT22;5599;52.210;21.046;2023-06-14T09:06:17;19.60;1.00
11091;DHT22;5599;52.210;21.046;2023-06-14T09:08:51;19.50;99.90
11091;DHT22;5599;52.210;21.046;2023-06-14T09:11:21;19.40;99.90
11091;DHT22;5599;52.210;21.046;2023-06-14T09:13:51;19.40;99.90
11091;DHT22;5599;52.210;21.046;2023-06-14T09:16:20;19.40;1.00
11091;DHT22;5599;52.210;21.046;2023-06-14T09:18:50;19.40;99.90
11091;DHT22;5599;52.210;21.046;2023-06-14T09:21:21;19.60;99.90
11091;DHT22;5599;52.210;21.046;2023-06-14T09:23:50;19.70;99.90
11091;DHT22;5599;52.210;21.046;2023-06-14T09:26:21;19.60;99.90
11091;DHT22;5599;52.210;21.046;2023-06-14T09:28:51;19.70;99.90
11091;DHT22;5599;52.210;21.046;2023-06-14T09:31:20;19.60;9.90
11091;DHT22;5599;52.210;21.046;2023-06-14T09:33:51;19.50;99.90
11091;DHT22;5599;52.210;21.046;2023-06-14T09:36:25;19.30;1.00
11091;DHT22;5599;52.210;21.046;2023-06-14T09:38:56;19.20;51.30
11091;DHT22;5599;52.210;21.046;2023-06-14T09:41:31;19.20;1.00
11091;DHT22;5599;52.210;21.046;2023-06-14T09:44:02;19.30;1.00
11091;DHT22;5599;52.210;21.046;2023-06-14T09:46:38;19.40;99.90
11091;DHT22;5599;52.210;21.046;2023-06-14T09:49:09;19.40;99.90
11091;DHT22;5599;52.210;21.046;2023-06-14T09:51:43;19.20;1.00
11091;DHT22;5599;52.210;21.046;2023-06-14T09:54:16;19.20;90.40
11091;DHT22;5599;52.210;21.046;2023-06-14T09:56:47;19.30;99.90
11091;DHT22;5599;52.210;21.046;2023-06-14T09:59:21;19.20;1.00
11091;DHT22;5599;52.210;21.046;2023-06-14T10:01:55;19.20;1.00
11091;DHT22;5599;52.210;21.046;2023-06-14T10:04:28;19.30;1.00
11091;DHT22;5599;52.210;21.046;2023-06-14T10:07:00;19.20;1.00
11091;DHT22;5599;52.210;21.046;2023-06-14T10:09:31;19.30;1.00
11091;DHT22;5599;52.210;21.046;2023-06-14T10:12:01;19.30;1.00
11091;DHT22;5599;52.210;21.046;2023-06-14T10:14:31;19.20;1.00
11091;DHT22;5599;52.210;21.046;2023-06-14T10:17:05;19.20;99.90
11091;DHT22;5599;52.210;21.046;2023-06-14T10:19:42;19.50;99.90
11091;DHT22;5599;52.210;21.046;2023-06-14T10:22:18;19.70;1.00
11091;DHT22;5599;52.210;21.046;2023-06-14T10:24:50;19.80;1.00
11091;DHT22;5599;52.210;21.046;2023-06-14T10:27:20;19.90;1.00
11091;DHT22;5599;52.210;21.046;2023-06-14T10:30:06;20.00;99.90
11091;DHT22;5599;52.210;21.046;2023-06-14T10:35:42;20.70;99.90
11091;DHT22;5599;52.210;21.046;2023-06-14T10:38:13;20.90;99.90
11091;DHT22;5599;52.210;21.046;2023-06-14T10:40:44;21.00;1.00
11091;DHT22;5599;52.210;21.046;2023-06-14T10:43:24;20.90;99.90
11091;DHT22;5599;52.210;21.046;2023-06-14T10:46:16;20.50;1.00
11091;DHT22;5599;52.210;21.046;2023-06-14T10:48:46;20.30;99.90
11091;DHT22;5599;52.210;21.046;2023-06-14T10:51:19;20.00;99.90
11091;DHT22;5599;52.210;21.046;2023-06-14T10:53:57;19.70;1.00
11091;DHT22;5599;52.210;21.046;2023-06-14T10:56:29;19.60;1.00
11091;DHT22;5599;52.210;21.046;2023-06-14T10:58:58;19.50;1.00
11091;DHT22;5599;52.210;21.046;2023-06-14T11:01:35;19.40;1.00
11091;DHT22;5599;52.210;21.046;2023-06-14T11:04:09;19.50;1.00
11091;DHT22;5599;52.210;21.046;2023-06-14T11:06:47;19.50;1.00
11091;DHT22;5599;52.210;21.046;2023-06-14T11:09:45;19.60;1.00
11091;DHT22;5599;52.210;21.046;2023-06-14T11:12:20;19.40;24.50
11091;DHT22;5599;52.210;21.046;2023-06-14T11:14:50;19.40;1.00
11091;DHT22;5599;52.210;21.046;2023-06-14T11:17:20;19.30;1.00
11091;DHT22;5599;52.210;21.046;2023-06-14T11:19:49;19.40;1.60
11091;DHT22;5599;52.210;21.046;2023-06-14T11:22:19;19.20;99.90
11091;DHT22;5599;52.210;21.046;2023-06-14T11:24:50;19.40;99.90
11091;DHT22;5599;52.210;21.046;2023-06-14T11:27:19;19.60;99.90
11091;DHT22;5599;52.210;21.046;2023-06-14T11:29:49;19.70;99.90
11091;DHT22;5599;52.210;21.046;2023-06-14T11:32:18;19.70;99.90
11091;DHT22;5599;52.210;21.046;2023-06-14T11:34:48;19.70;99.90
11091;DHT22;5599;52.210;21.046;2023-06-14T11:37:19;19.80;99.90
11091;DHT22;5599;52.210;21.046;2023-06-14T11:39:50;19.90;1.00
11091;DHT22;5599;52.210;21.046;2023-06-14T11:42:19;20.10;1.00
11091;DHT22;5599;52.210;21.046;2023-06-14T11:44:49;20.00;18.90
11091;DHT22;5599;52.210;21.046;2023-06-14T11:47:31;20.10;1.00
11091;DHT22;5599;52.210;21.046;2023-06-14T11:50:02;20.10;7.70
11091;DHT22;5599;52.210;21.046;2023-06-14T11:52:31;20.10;1.00
11091;DHT22;5599;52.210;21.046;2023-06-14T11:55:03;20.30;86.70
11091;DHT22;5599;52.210;21.046;2023-06-14T11:57:34;20.50;99.90
11091;DHT22;5599;52.210;21.046;2023-06-14T12:00:06;20.80;1.00
11091;DHT22;5599;52.210;21.046;2023-06-14T12:02:39;20.90;99.90
11091;DHT22;5599;52.210;21.046;2023-06-14T12:05:09;21.10;1.00
11091;DHT22;5599;52.210;21.046;2023-06-14T12:07:39;21.00;99.90
11091;DHT22;5599;52.210;21.046;2023-06-14T12:10:10;20.80;1.00
11091;DHT22;5599;52.210;21.046;2023-06-14T12:12:41;20.50;99.90
11091;DHT22;5599;52.210;21.046;2023-06-14T12:15:11;20.30;1.00
11091;DHT22;5599;52.210;21.046;2023-06-14T12:17:42;20.30;99.90
11091;DHT22;5599;52.210;21.046;2023-06-14T12:20:14;20.10;1.00
11091;DHT22;5599;52.210;21.046;2023-06-14T12:22:51;20.00;99.90
11091;DHT22;5599;52.210;21.046;2023-06-14T12:25:27;20.20;99.90
11091;DHT22;5599;52.210;21.046;2023-06-14T12:27:59;20.20;1.00
11091;DHT22;5599;52.210;21.046;2023-06-14T12:30:33;20.10;1.00
11091;DHT22;5599;52.210;21.046;2023-06-14T12:33:02;19.80;99.90
11091;DHT22;5599;52.210;21.046;2023-06-14T12:35:32;19.80;1.00
11091;DHT22;5599;52.210;21.046;2023-06-14T12:38:01;20.00;99.90
11091;DHT22;5599;52.210;21.046;2023-06-14T12:40:33;19.90;99.90
11091;DHT22;5599;52.210;21.046;2023-06-14T12:43:03;19.90;99.90
11091;DHT22;5599;52.210;21.046;2023-06-14T12:45:32;19.80;1.00
11091;DHT22;5599;52.210;21.046;2023-06-14T12:48:02;19.80;1.00
11091;DHT22;5599;52.210;21.046;2023-06-14T12:50:31;19.80;1.00
11091;DHT22;5599;52.210;21.046;2023-06-14T12:53:01;20.00;1.00
11091;DHT22;5599;52.210;21.046;2023-06-14T12:55:30;20.00;1.00
11091;DHT22;5599;52.210;21.046;2023-06-14T12:58:01;20.10;1.00
11091;DHT22;5599;52.210;21.046;2023-06-14T13:00:30;19.90;1.00
11091;DHT22;5599;52.210;21.046;2023-06-14T13:03:00;19.60;99.90
11091;DHT22;5599;52.210;21.046;2023-06-14T13:05:30;19.50;31.00
11091;DHT22;5599;52.210;21.046;2023-06-14T13:08:03;19.20;1.00
11091;DHT22;5599;52.210;21.046;2023-06-14T13:10:34;19.10;99.90
11091;DHT22;5599;52.210;21.046;2023-06-14T13:13:05;19.10;1.00
11091;DHT22;5599;52.210;21.046;2023-06-14T13:15:35;19.00;98.00
11091;DHT22;5599;52.210;21.046;2023-06-14T13:18:04;19.20;1.00
11091;DHT22;5599;52.210;21.046;2023-06-14T13:20:34;19.40;1.00
11091;DHT22;5599;52.210;21.046;2023-06-14T13:23:03;19.50;99.90
11091;DHT22;5599;52.210;21.046;2023-06-14T13:25:35;19.50;1.00
11091;DHT22;5599;52.210;21.046;2023-06-14T13:28:05;19.60;99.90
11091;DHT22;5599;52.210;21.046;2023-06-14T13:30:35;19.70;1.00
11091;DHT22;5599;52.210;21.046;2023-06-14T13:33:04;19.80;99.90
11091;DHT22;5599;52.210;21.046;2023-06-14T13:35:34;19.70;99.90
11091;DHT22;5599;52.210;21.046;2023-06-14T13:38:04;19.60;1.00
11091;DHT22;5599;52.210;21.046;2023-06-14T13:40:33;19.80;99.90
11091;DHT22;5599;52.210;21.046;2023-06-14T13:43:04;20.00;1.00
11091;DHT22;5599;52.210;21.046;2023-06-14T13:45:34;20.10;99.90
11091;DHT22;5599;52.210;21.046;2023-06-14T13:48:05;20.00;99.90
11091;DHT22;5599;52.210;21.046;2023-06-14T13:50:34;20.10;1.00
11091;DHT22;5599;52.210;21.046;2023-06-14T13:53:04;19.90;30.00
11091;DHT22;5599;52.210;21.046;2023-06-14T13:55:33;19.90;1.00
11091;DHT22;5599;52.210;21.046;2023-06-14T13:58:02;20.00;1.00
11091;DHT22;5599;52.210;21.046;2023-06-14T14:00:33;20.30;1.00
11091;DHT22;5599;52.210;21.046;2023-06-14T14:03:05;20.40;1.00
11091;DHT22;5599;52.210;21.046;2023-06-14T14:05:34;20.20;1.00
11091;DHT22;5599;52.210;21.046;2023-06-14T14:08:04;20.00;99.90
11091;DHT22;5599;52.210;21.046;2023-06-14T14:10:33;20.00;99.90
11091;DHT22;5599;52.210;21.046;2023-06-14T14:13:03;20.20;99.90
11091;DHT22;5599;52.210;21.046;2023-06-14T14:15:35;20.10;94.50
11091;DHT22;5599;52.210;21.046;2023-06-14T14:18:04;20.10;99.90
11091;DHT22;5599;52.210;21.046;2023-06-14T14:20:35;20.10;1.00
11091;DHT22;5599;52.210;21.046;2023-06-14T14:23:04;20.10;99.90
11091;DHT22;5599;52.210;21.046;2023-06-14T14:25:33;20.00;1.00
11091;DHT22;5599;52.210;21.046;2023-06-14T14:28:03;19.90;1.00
11091;DHT22;5599;52.210;21.046;2023-06-14T14:30:34;19.90;60.50
11091;DHT22;5599;52.210;21.046;2023-06-14T14:33:07;19.90;99.90
11091;DHT22;5599;52.210;21.046;2023-06-14T14:35:39;19.90;99.90
11091;DHT22;5599;52.210;21.046;2023-06-14T14:38:09;19.80;1.00
11091;DHT22;5599;52.210;21.046;2023-06-14T14:40:39;19.80;1.00
11091;DHT22;5599;52.210;21.046;2023-06-14T14:43:08;19.80;1.00
11091;DHT22;5599;52.210;21.046;2023-06-14T14:45:39;19.80;20.00
11091;DHT22;5599;52.210;21.046;2023-06-14T14:48:09;19.80;1.00
11091;DHT22;5599;52.210;21.046;2023-06-14T14:50:38;19.80;74.90
11091;DHT22;5599;52.210;21.046;2023-06-14T14:53:08;19.70;99.90
11091;DHT22;5599;52.210;21.046;2023-06-14T14:55:37;19.70;99.90
11091;DHT22;5599;52.210;21.046;2023-06-14T14:58:09;19.70;1.00
11091;DHT22;5599;52.210;21.046;2023-06-14T15:00:39;19.50;99.90
11091;DHT22;5599;52.210;21.046;2023-06-14T15:03:09;19.50;1.00
11091;DHT22;5599;52.210;21.046;2023-06-14T15:05:38;19.40;1.00
11091;DHT22;5599;52.210;21.046;2023-06-14T15:08:07;19.40;1.00
11091;DHT22;5599;52.210;21.046;2023-06-14T15:10:40;19.50;99.90
11091;DHT22;5599;52.210;21.046;2023-06-14T15:13:09;19.50;99.90
11091;DHT22;5599;52.210;21.046;2023-06-14T15:15:40;19.60;1.00
11091;DHT22;5599;52.210;21.046;2023-06-14T15:18:10;19.60;99.90
11091;DHT22;5599;52.210;21.046;2023-06-14T15:20:39;19.60;1.00
11091;DHT22;5599;52.210;21.046;2023-06-14T15:23:09;19.60;1.00
11091;DHT22;5599;52.210;21.046;2023-06-14T15:25:39;19.60;1.00
11091;DHT22;5599;52.210;21.046;2023-06-14T15:28:11;19.70;99.90
11091;DHT22;5599;52.210;21.046;2023-06-14T15:30:41;19.90;99.90
11091;DHT22;5599;52.210;21.046;2023-06-14T15:33:11;20.10;1.00
11091;DHT22;5599;52.210;21.046;2023-06-14T15:35:41;20.20;1.00
11091;DHT22;5599;52.210;21.046;2023-06-14T15:38:11;20.20;1.00
11091;DHT22;5599;52.210;21.046;2023-06-14T15:40:40;20.40;99.90
11091;DHT22;5599;52.210;21.046;2023-06-14T15:43:09;20.50;99.90
11091;DHT22;5599;52.210;21.046;2023-06-14T15:45:39;20.30;1.00
11091;DHT22;5599;52.210;21.046;2023-06-14T15:48:09;20.30;1.00
11091;DHT22;5599;52.210;21.046;2023-06-14T15:50:39;20.30;99.90
11091;DHT22;5599;52.210;21.046;2023-06-14T15:53:08;20.20;1.00
11091;DHT22;5599;52.210;21.046;2023-06-14T15:55:38;20.20;99.90
11091;DHT22;5599;52.210;21.046;2023-06-14T15:58:07;20.10;1.00
11091;DHT22;5599;52.210;21.046;2023-06-14T16:00:36;20.10;1.00
11091;DHT22;5599;52.210;21.046;2023-06-14T16:03:06;20.00;1.00